»·PEaware :: FDX1885 KOAK-KSEA

FDX1885 :: KOAK-KSEA

FLIGHT INFORMATION

Flight Status: Arrived
Operator:
Federal Express
More flights by this operator :: More flights under this callsign
Pilot: Anonymous 12254 (12254)
Aircraft: BOEING 767-300
(B763)
More flights by this aircraft type
Origin: KOAK Metro Oakland Intl
United States
Destination: KSEA Seattle-Tacoma Intl
United States
More flights between these airports :: More routes between these airports
Route: +OAK3 DEDHD RBL LMT HAWKZ7
File this flight plan on PilotEdge
Remarks:
Altitude:
(Current/Filed)
36,000ft
Speed:
(Current/Filed)
460kts
Departed: 30-Apr-19 08:22 AM
Arrived: 30-Apr-19 10:02 AM
Distance/Time
Traveled:
584nm/1:40
Distance/Time
To Go:
Arrived

Flight Plot

Page will automatically refresh every two minutes.

Flight plan parsing failed; only flown route is shown


Map Options




Map Legend


Flown Route
Filed Route
Departure Airport
Arrival Airport
Navaid (VOR, NDB)
Fix

Horizontal Profiles

Position Reports

Time Latitude Longitude Heading Altitude Ground
Speed
30-Apr-19 07:47 37.718229 -122.217857 227 15ft 0kts
30-Apr-19 07:48 37.718229 -122.217857 227 15ft 0kts
30-Apr-19 07:49 37.718229 -122.217857 227 15ft 0kts
30-Apr-19 07:50 37.718229 -122.217857 227 15ft 0kts
30-Apr-19 07:51 37.718229 -122.217857 227 15ft 0kts
30-Apr-19 07:52 37.718229 -122.217857 227 15ft 0kts
30-Apr-19 07:53 37.718229 -122.217857 227 15ft 0kts
30-Apr-19 07:54 37.718229 -122.217857 227 15ft 0kts
30-Apr-19 07:55 37.718229 -122.217857 227 15ft 0kts
30-Apr-19 07:56 37.718229 -122.217857 227 15ft 0kts
30-Apr-19 07:57 37.718229 -122.217857 227 15ft 0kts
30-Apr-19 07:58 37.718229 -122.217857 227 15ft 0kts
30-Apr-19 07:59 37.718229 -122.217857 227 15ft 0kts
30-Apr-19 08:00 37.718229 -122.217857 227 15ft 0kts
30-Apr-19 08:01 37.718229 -122.217857 227 15ft 0kts
30-Apr-19 08:02 37.718229 -122.217857 227 15ft 0kts
30-Apr-19 08:03 37.718229 -122.217857 227 15ft 0kts
30-Apr-19 08:04 37.718229 -122.217857 227 15ft 0kts
30-Apr-19 08:05 37.718228 -122.217857 227 15ft 0kts
30-Apr-19 08:06 37.718229 -122.217857 227 15ft 0kts
30-Apr-19 08:07 37.718229 -122.217857 227 15ft 0kts
30-Apr-19 08:08 37.718229 -122.217857 227 15ft 0kts
30-Apr-19 08:09 37.718229 -122.217857 227 15ft 0kts
30-Apr-19 08:10 37.717471 -122.218904 227 15ft 6kts
30-Apr-19 08:11 37.716134 -122.220428 200 15ft 6kts
30-Apr-19 08:12 37.715629 -122.220345 142 15ft 0kts
30-Apr-19 08:13 37.715622 -122.220338 142 15ft 0kts
30-Apr-19 08:14 37.714580 -122.219968 219 15ft 5kts
30-Apr-19 08:15 37.713305 -122.221651 230 15ft 7kts
30-Apr-19 08:16 37.711611 -122.223581 220 15ft 9kts
30-Apr-19 08:17 37.709386 -122.222323 130 15ft 13kts
30-Apr-19 08:18 37.706278 -122.217685 131 15ft 21kts
30-Apr-19 08:19 37.702902 -122.213685 176 15ft 0kts
30-Apr-19 08:20 37.702902 -122.213685 176 15ft 0kts
30-Apr-19 08:21 37.703021 -122.216602 308 15ft 56kts
30-Apr-19 08:22 37.726410 -122.251364 307 317ft 152kts
30-Apr-19 08:23 37.755203 -122.296241 306 1689ft 187kts
30-Apr-19 08:24 37.789828 -122.351049 309 3755ft 213kts
30-Apr-19 08:25 37.843681 -122.333701 39 5727ft 249kts
30-Apr-19 08:26 37.911187 -122.292398 16 7795ft 285kts
30-Apr-19 08:27 37.988145 -122.259234 14 10182ft 290kts
30-Apr-19 08:28 38.066757 -122.226186 13 12719ft 298kts
30-Apr-19 08:29 38.146793 -122.192511 12 15224ft 309kts
30-Apr-19 08:30 38.233376 -122.156062 12 17806ft 344kts
30-Apr-19 08:31 38.330771 -122.116362 3 20385ft 377kts
30-Apr-19 08:32 38.439239 -122.120026 351 22964ft 398kts
30-Apr-19 08:33 38.552354 -122.127703 350 25494ft 412kts
30-Apr-19 08:34 38.669432 -122.135762 350 28016ft 427kts
30-Apr-19 08:35 38.791087 -122.144171 350 30540ft 443kts
30-Apr-19 08:36 38.913254 -122.152569 349 33011ft 434kts
30-Apr-19 08:37 39.030884 -122.160695 347 35458ft 415kts
30-Apr-19 08:38 39.144698 -122.168694 346 35935ft 412kts
30-Apr-19 08:39 39.257754 -122.176642 346 35935ft 413kts
30-Apr-19 08:40 39.373274 -122.184763 347 35934ft 413kts
30-Apr-19 08:41 39.486699 -122.192759 346 35931ft 413kts
30-Apr-19 08:42 39.600263 -122.200784 347 35933ft 413kts
30-Apr-19 08:43 39.714252 -122.208873 346 35938ft 414kts
30-Apr-19 08:44 39.828627 -122.217015 346 35938ft 414kts
30-Apr-19 08:45 39.944358 -122.225282 346 35953ft 414kts
30-Apr-19 08:46 40.060399 -122.233592 346 35963ft 413kts
30-Apr-19 08:47 40.170379 -122.218968 359 35971ft 433kts
30-Apr-19 08:48 40.285233 -122.191484 359 35970ft 431kts
30-Apr-19 08:49 40.399249 -122.163950 359 35967ft 432kts
30-Apr-19 08:50 40.511091 -122.136826 359 35961ft 432kts
30-Apr-19 08:51 40.617068 -122.111032 359 35960ft 431kts
30-Apr-19 08:52 40.723398 -122.085071 359 35959ft 432kts
30-Apr-19 08:53 40.838592 -122.056850 359 35958ft 432kts
30-Apr-19 08:54 40.958689 -122.027317 359 35958ft 432kts
30-Apr-19 08:55 41.073688 -121.998960 1 35955ft 422kts
30-Apr-19 08:56 41.183616 -121.971765 2 35990ft 421kts
30-Apr-19 08:57 41.295843 -121.943844 2 36038ft 420kts
30-Apr-19 08:58 41.409315 -121.915539 2 36038ft 420kts
30-Apr-19 08:59 41.523958 -121.886850 2 36037ft 420kts
30-Apr-19 09:00 41.638293 -121.858134 2 36035ft 420kts
30-Apr-19 09:01 41.752476 -121.829355 2 36035ft 420kts
30-Apr-19 09:02 41.868589 -121.799976 2 36033ft 420kts
30-Apr-19 09:03 41.982990 -121.770933 2 36033ft 421kts
30-Apr-19 09:04 42.097606 -121.741722 2 36032ft 421kts
30-Apr-19 09:05 42.205793 -121.740306 344 36044ft 403kts
30-Apr-19 09:06 42.314029 -121.764145 344 36041ft 402kts
30-Apr-19 09:07 42.423190 -121.788889 344 36038ft 402kts
30-Apr-19 09:08 42.532193 -121.813783 344 36037ft 402kts
30-Apr-19 09:09 42.641881 -121.838945 344 36037ft 402kts
30-Apr-19 09:10 42.751311 -121.864134 344 36035ft 402kts
30-Apr-19 09:11 42.860102 -121.889264 344 36034ft 402kts
30-Apr-19 09:12 42.970143 -121.914842 347 36030ft 401kts
30-Apr-19 09:13 43.080348 -121.940468 348 36041ft 405kts
30-Apr-19 09:14 43.189066 -121.965815 348 36055ft 405kts
30-Apr-19 09:15 43.298625 -121.991488 348 36092ft 405kts
30-Apr-19 09:16 43.408375 -122.017305 348 36122ft 405kts
30-Apr-19 09:17 43.518839 -122.043392 348 36119ft 404kts
30-Apr-19 09:18 43.630564 -122.069873 348 36116ft 404kts
30-Apr-19 09:19 43.742297 -122.096455 348 36115ft 404kts
30-Apr-19 09:20 43.853965 -122.123124 348 36113ft 405kts
30-Apr-19 09:21 43.965323 -122.149816 348 36111ft 405kts
30-Apr-19 09:22 44.065748 -122.173979 348 36113ft 405kts
30-Apr-19 09:23 44.172959 -122.199865 348 36128ft 405kts
30-Apr-19 09:24 44.282421 -122.226393 348 36130ft 405kts
30-Apr-19 09:25 44.393546 -122.253426 348 36144ft 405kts
30-Apr-19 09:26 44.504209 -122.280451 348 36163ft 404kts
30-Apr-19 09:27 44.613563 -122.307267 348 36164ft 405kts
30-Apr-19 09:28 44.722427 -122.334057 348 36166ft 405kts
30-Apr-19 09:29 44.831581 -122.361024 348 36167ft 404kts
30-Apr-19 09:30 44.942260 -122.388498 348 35758ft 407kts
30-Apr-19 09:31 45.052978 -122.416092 349 34334ft 409kts
30-Apr-19 09:32 45.163116 -122.443602 350 32872ft 417kts
30-Apr-19 09:33 45.276034 -122.471903 350 31420ft 421kts
30-Apr-19 09:34 45.390628 -122.500777 350 29922ft 406kts
30-Apr-19 09:35 45.496585 -122.527587 351 28393ft 372kts
30-Apr-19 09:36 45.597131 -122.553111 351 26934ft 362kts
30-Apr-19 09:37 45.696872 -122.578527 351 25052ft 358kts
30-Apr-19 09:38 45.795443 -122.603301 352 22896ft 348kts
30-Apr-19 09:39 45.891074 -122.626942 352 22181ft 342kts
30-Apr-19 09:40 45.986399 -122.650594 351 22189ft 344kts
30-Apr-19 09:41 46.081834 -122.674354 351 22204ft 343kts
30-Apr-19 09:42 46.175121 -122.693456 353 21121ft 338kts
30-Apr-19 09:43 46.268298 -122.711899 353 19605ft 334kts
30-Apr-19 09:44 46.366390 -122.723812 359 16519ft 341kts
30-Apr-19 09:45 46.457656 -122.727139 359 15336ft 318kts
30-Apr-19 09:46 46.547460 -122.730375 359 14310ft 315kts
30-Apr-19 09:47 46.636345 -122.733609 359 13283ft 312kts
30-Apr-19 09:48 46.724398 -122.736783 359 12432ft 309kts
30-Apr-19 09:49 46.806199 -122.711878 37 11998ft 306kts
30-Apr-19 09:50 46.874748 -122.633669 37 11625ft 305kts
30-Apr-19 09:51 46.944553 -122.560185 19 9980ft 300kts
30-Apr-19 09:52 47.025481 -122.523998 16 9989ft 298kts
30-Apr-19 09:53 47.078285 -122.434767 61 8690ft 296kts
30-Apr-19 09:54 47.132188 -122.346447 26 6990ft 275kts
30-Apr-19 09:55 47.195732 -122.303216 10 5249ft 234kts
30-Apr-19 09:56 47.259814 -122.308320 359 3974ft 206kts
30-Apr-19 09:58 47.315249 -122.308850 0 2949ft 209kts
30-Apr-19 09:59 47.362891 -122.308578 0 1688ft 137kts
30-Apr-19 10:00 47.399612 -122.308316 0 1021ft 134kts
30-Apr-19 10:01 47.436630 -122.308084 0 361ft 115kts
30-Apr-19 10:02 47.449997 -122.307035 53 412ft 15kts
30-Apr-19 10:03 47.456693 -122.306163 9 442ft 19kts
30-Apr-19 10:04 47.457423 -122.303079 218 456ft 0kts
30-Apr-19 10:05 47.457423 -122.303079 218 456ft 0kts
30-Apr-19 10:06 47.457423 -122.303079 218 456ft 0kts
30-Apr-19 10:07 47.457423 -122.303079 218 456ft 0kts
30-Apr-19 10:08 47.457423 -122.303079 218 456ft 0kts
30-Apr-19 10:09 47.457423 -122.303079 218 456ft 0kts
30-Apr-19 10:10 47.457423 -122.303079 218 456ft 0kts
30-Apr-19 10:11 47.457423 -122.303079 218 456ft 0kts

Navigation Log

Ident Type
Flight plan parsing failed, navigation log unavailable